Time;durP1;ratioP1;P1;durP2;ratioP2;P2;SDS_P1;SDS_P2;PMS_P1;PMS_P2;Temp;Humidity;BMP_temperature;BMP_pressure;BME280_temperature;BME280_humidity;BME280_pressure;Samples;Min_cycle;Max_cycle;Signal;HPM_P1;HPM_P2
2023/12/19 00:00:14;;;;;;;39.30;22.55;;;;;;;2.31;100.00;101595.81;5037966;28;20073;-71
2023/12/19 00:02:42;;;;;;;39.50;21.98;;;;;;;2.31;100.00;101606.25;5030756;28;20107;-71
2023/12/19 00:05:12;;;;;;;38.25;21.33;;;;;;;2.34;100.00;101606.28;5027627;28;20410;-73
2023/12/19 00:07:40;;;;;;;37.13;20.70;;;;;;;2.27;100.00;101604.47;5012543;28;20386;-74
2023/12/19 00:10:10;;;;;;;38.78;20.50;;;;;;;2.26;100.00;101597.50;5023458;28;20037;-72
2023/12/19 00:12:39;;;;;;;38.42;21.75;;;;;;;2.17;100.00;101597.47;5027720;28;20030;-73
2023/12/19 00:15:09;;;;;;;36.75;20.48;;;;;;;2.09;100.00;101589.56;5025043;28;20041;-73
2023/12/19 00:17:42;;;;;;;34.85;20.00;;;;;;;2.25;100.00;101617.53;5044365;28;20564;-71
2023/12/19 00:20:13;;;;;;;34.80;20.48;;;;;;;2.21;100.00;101613.16;5023110;28;20103;-70
2023/12/19 00:22:42;;;;;;;35.72;20.55;;;;;;;2.21;100.00;101622.72;5025444;28;20045;-72
2023/12/19 00:25:11;;;;;;;33.78;20.17;;;;;;;2.14;100.00;101629.66;5029256;28;20148;-72
2023/12/19 00:27:41;;;;;;;37.83;20.83;;;;;;;2.18;100.00;101631.44;5027797;28;20152;-72
2023/12/19 00:30:13;;;;;;;34.83;20.35;;;;;;;2.20;100.00;101637.56;5026891;28;20063;-71
2023/12/19 00:32:41;;;;;;;34.20;20.20;;;;;;;2.17;100.00;101627.09;5025660;28;20075;-72
2023/12/19 00:35:11;;;;;;;35.83;20.15;;;;;;;2.15;100.00;101638.38;5027598;28;20666;-72
2023/12/19 00:37:41;;;;;;;33.70;20.05;;;;;;;2.18;100.00;101625.34;5038867;28;20049;-71
2023/12/19 00:40:12;;;;;;;38.35;21.67;;;;;;;2.23;100.00;101624.50;5019111;28;20217;-70
2023/12/19 00:42:41;;;;;;;35.53;20.55;;;;;;;2.29;100.00;101624.53;5025470;28;20057;-71
2023/12/19 00:45:11;;;;;;;35.95;20.88;;;;;;;2.34;100.00;101625.44;5030943;28;20493;-70
2023/12/19 00:47:42;;;;;;;32.10;20.20;;;;;;;2.33;100.00;101604.53;5028838;28;20055;-70
2023/12/19 00:50:10;;;;;;;36.70;20.40;;;;;;;2.40;100.00;101607.16;5019446;28;20049;-72
2023/12/19 00:52:38;;;;;;;38.67;20.75;;;;;;;2.43;100.00;101596.75;5031906;28;20049;-72
2023/12/19 00:55:09;;;;;;;37.35;20.67;;;;;;;2.44;100.00;101574.97;5013815;28;20053;-72
2023/12/19 00:57:37;;;;;;;33.53;20.08;;;;;;;2.46;100.00;101588.91;5023419;28;20045;-71
2023/12/19 01:00:07;;;;;;;36.05;19.85;;;;;;;2.51;100.00;101583.72;5023485;28;20074;-70
2023/12/19 01:02:36;;;;;;;33.47;20.10;;;;;;;2.54;100.00;101585.44;5029983;28;20037;-71
2023/12/19 01:05:04;;;;;;;32.88;20.00;;;;;;;2.39;100.00;101563.59;5024948;28;20038;-72
2023/12/19 01:07:33;;;;;;;29.20;18.08;;;;;;;2.56;100.00;101588.94;5021963;28;20044;-70
2023/12/19 01:10:01;;;;;;;31.88;19.00;;;;;;;2.46;100.00;101559.28;5022672;28;20045;-73
2023/12/19 01:12:34;;;;;;;31.75;19.13;;;;;;;2.63;100.00;101580.28;5042811;28;20042;-70
2023/12/19 01:15:02;;;;;;;31.50;18.98;;;;;;;2.64;100.00;101579.41;5024846;28;20079;-71
2023/12/19 01:17:30;;;;;;;31.30;18.42;;;;;;;2.56;100.00;101575.88;5031702;28;20042;-71
2023/12/19 01:19:58;;;;;;;30.23;19.50;;;;;;;2.60;100.00;101577.66;5031343;28;20045;-72
2023/12/19 01:22:28;;;;;;;29.52;18.08;;;;;;;2.62;100.00;101568.06;5032136;28;20076;-72
2023/12/19 01:24:57;;;;;;;31.77;18.92;;;;;;;2.63;100.00;101564.59;5029873;28;20049;-72
2023/12/19 01:27:25;;;;;;;30.30;17.65;;;;;;;2.66;100.00;101572.47;5028177;28;20041;-71
2023/12/19 01:29:55;;;;;;;31.08;18.95;;;;;;;2.58;100.00;101576.75;5022475;28;20111;-73
2023/12/19 01:32:26;;;;;;;30.48;19.00;;;;;;;2.27;100.00;101563.53;5002027;28;20061;-71
2023/12/19 01:34:54;;;;;;;32.17;19.92;;;;;;;2.33;100.00;101600.19;5032366;28;20418;-72
2023/12/19 01:37:22;;;;;;;34.53;20.05;;;;;;;2.28;100.00;101601.00;5016054;28;20063;-71
2023/12/19 01:39:50;;;;;;;31.90;19.35;;;;;;;2.15;100.00;101584.38;5028713;28;20046;-70
2023/12/19 01:42:19;;;;;;;31.33;19.90;;;;;;;2.12;100.00;101592.19;5026713;28;20048;-71
2023/12/19 01:45:08;;;;;;;31.48;19.25;;;;;;;2.11;100.00;101587.84;5034144;28;20049;-71
2023/12/19 01:47:38;;;;;;;30.45;18.80;;;;;;;2.10;100.00;101578.25;5027919;28;20045;-70
2023/12/19 01:50:08;;;;;;;33.92;19.08;;;;;;;2.12;100.00;101579.13;5026982;28;20453;-71
2023/12/19 01:52:39;;;;;;;31.45;19.20;;;;;;;2.08;100.00;101606.09;5029610;28;20038;-71
2023/12/19 01:55:08;;;;;;;32.95;20.05;;;;;;;1.97;100.00;101626.94;5030558;28;20060;-72
2023/12/19 01:57:37;;;;;;;32.85;19.52;;;;;;;1.96;100.00;101650.41;5032914;28;20061;-71
2023/12/19 02:00:12;;;;;;;40.80;21.25;;;;;;;1.91;100.00;101646.88;5025705;28;21325;-70
2023/12/19 02:02:40;;;;;;;38.33;21.33;;;;;;;1.86;100.00;101638.16;5027840;28;20059;-72
2023/12/19 02:05:09;;;;;;;34.03;20.63;;;;;;;1.74;100.00;101605.84;5031001;28;20045;-72
2023/12/19 02:07:37;;;;;;;31.88;19.30;;;;;;;1.88;100.00;101615.53;5030211;28;20049;-71
2023/12/19 02:10:06;;;;;;;37.13;20.35;;;;;;;1.88;100.00;101612.94;5029866;28;20042;-70
2023/12/19 02:12:33;;;;;;;36.05;21.23;;;;;;;1.85;100.00;101602.44;5026406;28;20056;-71
2023/12/19 02:15:02;;;;;;;34.95;20.05;;;;;;;1.84;100.00;101587.66;5014855;28;20037;-71
2023/12/19 02:17:33;;;;;;;35.10;20.20;;;;;;;1.83;100.00;101589.38;5034591;28;20119;-71
2023/12/19 02:20:01;;;;;;;;;;;;;;;1.77;100.00;101577.13;5025533;28;20292;-72
2023/12/19 02:22:32;;;;;;;34.67;20.38;;;;;;;1.94;100.00;101584.22;5024845;28;20007;-72
2023/12/19 02:25:01;;;;;;;35.90;20.35;;;;;;;2.01;100.00;101586.91;5030692;28;20054;-71
2023/12/19 02:27:31;;;;;;;34.63;19.65;;;;;;;2.06;100.00;101595.63;5014027;28;20128;-71
2023/12/19 02:29:59;;;;;;;40.35;20.70;;;;;;;2.12;100.00;101581.75;5029502;28;21149;-72
2023/12/19 02:32:27;;;;;;;37.05;20.90;;;;;;;2.09;100.00;101584.31;5030397;28;20124;-71
2023/12/19 02:34:55;;;;;;;37.30;20.83;;;;;;;2.10;100.00;101581.72;5031633;28;20050;-74
2023/12/19 02:37:23;;;;;;;35.03;21.23;;;;;;;2.13;100.00;101583.50;5035269;28;20049;-72
2023/12/19 02:39:51;;;;;;;40.42;22.65;;;;;;;2.10;100.00;101588.69;5031486;28;20041;-72
2023/12/19 02:42:21;;;;;;;40.08;22.83;;;;;;;2.06;100.00;101584.31;5029506;28;20037;-71
2023/12/19 02:44:49;;;;;;;45.25;23.92;;;;;;;2.04;100.00;101597.38;5031963;28;20085;-71
2023/12/19 02:47:18;;;;;;;41.35;22.98;;;;;;;1.94;100.00;101585.09;5016881;28;20041;-72
2023/12/19 02:49:46;;;;;;;43.15;23.60;;;;;;;1.95;100.00;101592.06;5012294;28;20057;-73
2023/12/19 02:52:14;;;;;;;43.83;24.13;;;;;;;1.98;100.00;101596.47;5024259;28;20085;-70
2023/12/19 02:54:44;;;;;;;42.28;24.92;;;;;;;1.95;100.00;101589.47;5035466;28;20045;-73
2023/12/19 02:57:14;;;;;;;41.60;23.33;;;;;;;1.92;100.00;101575.50;5028519;28;20059;-72
2023/12/19 02:59:43;;;;;;;43.58;23.73;;;;;;;1.99;100.00;101574.69;5028668;28;20046;-73
2023/12/19 03:02:11;;;;;;;42.72;23.30;;;;;;;1.93;100.00;101553.75;5021093;28;20057;-70
2023/12/19 03:04:40;;;;;;;41.25;22.73;;;;;;;1.97;100.00;101553.78;4999586;28;20041;-72
2023/12/19 03:07:10;;;;;;;39.97;22.83;;;;;;;1.88;100.00;101530.22;5036185;28;20077;-71
2023/12/19 03:09:39;;;;;;;42.47;22.58;;;;;;;1.94;100.00;101539.81;5033955;28;20142;-72
2023/12/19 03:12:10;;;;;;;42.30;22.90;;;;;;;1.89;100.00;101538.94;5012641;28;20049;-70
2023/12/19 03:14:38;;;;;;;40.50;21.88;;;;;;;1.75;100.00;101536.19;5032394;28;20047;-71
2023/12/19 03:17:07;;;;;;;42.58;23.48;;;;;;;1.72;100.00;101521.41;5031775;28;20055;-71
2023/12/19 03:19:36;;;;;;;40.55;23.02;;;;;;;1.72;100.00;101510.09;5029015;28;20048;-71
2023/12/19 03:22:05;;;;;;;36.15;20.25;;;;;;;1.67;100.00;101489.16;5004752;28;20049;-71
2023/12/19 03:24:34;;;;;;;41.25;22.05;;;;;;;1.69;100.00;101495.28;5025822;28;20059;-70
2023/12/19 03:27:03;;;;;;;34.80;19.90;;;;;;;1.45;100.00;101473.31;5034204;28;20045;-70
2023/12/19 03:29:32;;;;;;;37.42;20.95;;;;;;;1.59;100.00;101509.09;5038871;28;20203;-70
2023/12/19 03:32:00;;;;;;;36.88;20.70;;;;;;;1.54;100.00;101489.94;5030375;28;20819;-70
2023/12/19 03:34:30;;;;;;;34.10;19.88;;;;;;;1.58;100.00;101503.88;5037598;28;20057;-72
2023/12/19 03:36:59;;;;;;;37.72;19.85;;;;;;;1.55;100.00;101504.75;5032958;28;20060;-71
2023/12/19 03:39:27;;;;;;;35.92;19.20;;;;;;;1.50;100.00;101509.06;5041628;28;20045;-71
2023/12/19 03:41:55;;;;;;;34.33;18.83;;;;;;;1.37;100.00;101495.03;5017548;28;20042;-71
2023/12/19 03:44:41;;;;;;;33.50;18.63;;;;;;;1.46;100.00;101507.28;5044755;28;20117;-70
2023/12/19 03:47:13;;;;;;;33.63;18.58;;;;;;;1.39;100.00;101493.31;5043224;28;20040;-70
2023/12/19 03:49:43;;;;;;;34.05;18.90;;;;;;;1.40;100.00;101488.97;5005526;28;20052;-73
2023/12/19 03:52:12;;;;;;;31.10;18.70;;;;;;;1.42;100.00;101487.22;5027697;28;20600;-73
2023/12/19 03:54:40;;;;;;;31.27;17.63;;;;;;;1.42;100.00;101489.00;5033705;28;20045;-71
2023/12/19 03:57:08;;;;;;;29.55;17.35;;;;;;;1.34;100.00;101481.09;5006140;28;20132;-73
2023/12/19 03:59:35;;;;;;;25.58;16.20;;;;;;;1.24;100.00;101472.31;5036459;28;20053;-71
2023/12/19 04:02:04;;;;;;;29.30;16.75;;;;;;;1.39;100.00;101498.53;5033872;28;20041;-70
2023/12/19 04:04:32;;;;;;;28.23;15.80;;;;;;;1.33;100.00;101485.44;5045285;28;20130;-71
2023/12/19 04:07:04;;;;;;;27.42;15.93;;;;;;;1.42;100.00;101495.06;5023694;28;20068;-72
2023/12/19 04:09:32;;;;;;;26.95;15.95;;;;;;;1.33;100.00;101515.88;5040859;28;20056;-71
2023/12/19 04:12:02;;;;;;;28.52;17.00;;;;;;;1.25;100.00;101518.44;5033607;28;20064;-71
2023/12/19 04:14:30;;;;;;;27.77;16.20;;;;;;;1.21;100.00;101519.25;5015475;28;20041;-71
2023/12/19 04:16:58;;;;;;;27.45;15.80;;;;;;;1.33;100.00;101526.31;5027926;28;20103;-72
2023/12/19 04:19:27;;;;;;;25.83;15.38;;;;;;;1.42;100.00;101518.53;5010103;28;20156;-70
2023/12/19 04:21:57;;;;;;;26.38;15.50;;;;;;;1.50;100.00;101516.88;5023462;28;20049;-71
2023/12/19 04:24:28;;;;;;;28.15;15.82;;;;;;;1.50;100.00;101492.50;5027785;28;20112;-72
2023/12/19 04:26:56;;;;;;;25.25;14.02;;;;;;;1.59;100.00;101485.63;5027605;28;20049;-72
2023/12/19 04:29:24;;;;;;;28.52;15.60;;;;;;;1.73;100.00;101493.56;5010822;28;20052;-72
2023/12/19 04:31:52;;;;;;;25.65;15.05;;;;;;;1.65;100.00;101482.19;5024297;28;20049;-71
2023/12/19 04:34:21;;;;;;;25.85;15.30;;;;;;;1.77;100.00;101490.97;5041717;28;20042;-71
2023/12/19 04:36:49;;;;;;;25.88;15.52;;;;;;;1.84;100.00;101489.28;5012368;28;20049;-71
2023/12/19 04:39:18;;;;;;;27.23;15.43;;;;;;;1.84;100.00;101493.63;5029816;28;20085;-72
2023/12/19 04:41:48;;;;;;;30.58;16.15;;;;;;;1.76;100.00;101490.94;5035053;28;20049;-72
2023/12/19 04:44:15;;;;;;;25.25;15.48;;;;;;;1.83;100.00;101502.31;5028411;28;20049;-72
2023/12/19 04:46:44;;;;;;;26.90;15.40;;;;;;;1.74;100.00;101496.16;5028859;28;20048;-73
2023/12/19 04:49:13;;;;;;;28.70;16.58;;;;;;;1.67;100.00;101485.69;5043869;28;20159;-71
2023/12/19 04:51:47;;;;;;;27.77;16.40;;;;;;;1.68;100.00;101490.91;5020801;28;20046;-69
2023/12/19 04:54:16;;;;;;;28.00;15.93;;;;;;;1.76;100.00;101489.22;5026840;28;20116;-70
2023/12/19 04:56:44;;;;;;;27.30;15.88;;;;;;;1.79;100.00;101477.03;5028452;28;20123;-72
2023/12/19 04:59:13;;;;;;;26.70;15.95;;;;;;;1.89;100.00;101478.88;5029984;28;20052;-70
2023/12/19 05:01:42;;;;;;;24.10;14.98;;;;;;;1.92;100.00;101468.41;5024838;28;20449;-70
2023/12/19 05:04:10;;;;;;;25.35;15.52;;;;;;;1.92;100.00;101452.72;5032610;28;20328;-71
2023/12/19 05:06:38;;;;;;;26.52;15.70;;;;;;;1.98;100.00;101456.25;5026448;28;20107;-72
2023/12/19 05:09:07;;;;;;;29.35;17.50;;;;;;;2.04;100.00;101468.50;5033468;28;20082;-70
2023/12/19 05:11:37;;;;;;;29.65;16.20;;;;;;;2.00;100.00;101464.13;5040580;28;20056;-71
2023/12/19 05:14:05;;;;;;;27.85;16.15;;;;;;;2.02;100.00;101475.44;5029814;28;20060;-70
2023/12/19 05:16:35;;;;;;;27.88;17.27;;;;;;;2.00;100.00;101470.22;5018906;28;20068;-71
2023/12/19 05:19:04;;;;;;;26.25;16.50;;;;;;;1.95;100.00;101481.50;5033608;28;20607;-72
2023/12/19 05:21:38;;;;;;;30.90;18.27;;;;;;;1.86;100.00;101484.94;5025825;28;20053;-71
2023/12/19 05:24:09;;;;;;;32.40;17.70;;;;;;;1.80;100.00;101494.47;5048111;28;20115;-71
2023/12/19 05:26:37;;;;;;;31.60;18.55;;;;;;;1.73;100.00;101498.78;5030809;28;20049;-71
2023/12/19 05:29:05;;;;;;;30.90;18.20;;;;;;;1.76;100.00;101497.03;5031268;28;20095;-71
2023/12/19 05:31:35;;;;;;;31.65;18.17;;;;;;;1.73;100.00;101490.97;5027105;28;20064;-70
2023/12/19 05:34:03;;;;;;;32.75;18.52;;;;;;;1.69;100.00;101489.19;5028090;28;20042;-70
2023/12/19 05:36:34;;;;;;;32.13;17.88;;;;;;;1.72;100.00;101481.38;5029164;28;20057;-73
2023/12/19 05:39:10;;;;;;;30.33;17.73;;;;;;;1.74;100.00;101484.84;5013770;28;20048;-71
2023/12/19 05:41:38;;;;;;;33.10;17.77;;;;;;;1.81;100.00;101489.25;5022722;28;20041;-72
2023/12/19 05:44:06;;;;;;;32.38;19.10;;;;;;;1.89;100.00;101474.47;5027121;28;20045;-70
2023/12/19 05:46:36;;;;;;;29.88;17.80;;;;;;;1.72;100.00;101474.41;5027521;28;20068;-71
2023/12/19 05:49:06;;;;;;;32.88;17.63;;;;;;;1.67;100.00;101480.47;5018858;28;20053;-71
2023/12/19 05:51:38;;;;;;;29.55;16.95;;;;;;;1.60;100.00;101510.84;5018661;28;20049;-72
2023/12/19 05:54:07;;;;;;;28.60;17.20;;;;;;;1.61;100.00;101502.16;5029173;28;20629;-73
2023/12/19 05:56:35;;;;;;;28.88;17.17;;;;;;;1.69;100.00;101494.41;5029460;28;20131;-71
2023/12/19 05:59:05;;;;;;;29.20;16.67;;;;;;;1.71;100.00;101493.56;5028998;28;20051;-72
2023/12/19 06:01:33;;;;;;;28.52;17.20;;;;;;;1.72;100.00;101484.84;5024961;28;20104;-71
2023/12/19 06:04:03;;;;;;;27.27;16.25;;;;;;;1.70;100.00;101481.34;5010954;28;20063;-71
2023/12/19 06:06:33;;;;;;;29.42;16.95;;;;;;;1.63;100.00;101450.84;5024592;28;20054;-72
2023/12/19 06:09:05;;;;;;;;;;;;;;;1.86;100.00;101471.88;5031021;28;20049;-70
2023/12/19 06:11:33;;;;;;;23.63;14.68;;;;;;;1.92;100.00;101460.56;5024293;28;20149;-70
2023/12/19 06:14:01;;;;;;;26.27;14.93;;;;;;;2.00;100.00;101454.53;5005475;28;20064;-73
2023/12/19 06:16:30;;;;;;;22.48;13.70;;;;;;;1.99;100.00;101458.00;5030248;28;20095;-73
2023/12/19 06:19:01;;;;;;;22.30;13.43;;;;;;;1.88;100.00;101433.59;5023992;28;20041;-71
2023/12/19 06:21:32;;;;;;;22.05;13.25;;;;;;;2.08;100.00;101455.44;5024002;28;20079;-71
2023/12/19 06:24:00;;;;;;;23.33;14.55;;;;;;;2.10;100.00;101447.59;5028138;28;20060;-71
2023/12/19 06:26:28;;;;;;;21.02;12.98;;;;;;;2.03;100.00;101428.44;5015849;28;20164;-72
2023/12/19 06:28:56;;;;;;;21.85;12.95;;;;;;;1.93;100.00;101444.03;5037987;28;20111;-72
2023/12/19 06:31:24;;;;;;;21.02;12.52;;;;;;;1.84;100.00;101444.00;5031103;28;20052;-71
2023/12/19 06:33:52;;;;;;;21.95;12.68;;;;;;;1.84;100.00;101429.22;5030088;28;20041;-72
2023/12/19 06:36:41;;;;;;;21.63;13.05;;;;;;;1.66;100.00;101421.28;5032893;28;20045;-69
2023/12/19 06:39:09;;;;;;;23.20;12.38;;;;;;;1.61;100.00;101455.16;5035014;28;20441;-72
2023/12/19 06:41:38;;;;;;;23.45;13.40;;;;;;;1.57;100.00;101473.44;5030582;28;20047;-72
2023/12/19 06:44:08;;;;;;;19.30;12.07;;;;;;;1.57;100.00;101474.31;5027998;28;20117;-71
2023/12/19 06:46:36;;;;;;;21.02;12.68;;;;;;;1.62;100.00;101472.59;5029179;28;20052;-71
2023/12/19 06:49:04;;;;;;;22.05;13.27;;;;;;;1.64;100.00;101476.09;5028714;28;20084;-72
2023/12/19 06:51:34;;;;;;;20.48;12.93;;;;;;;1.68;100.00;101466.53;5022457;28;20079;-71
2023/12/19 06:54:03;;;;;;;21.38;12.40;;;;;;;1.60;100.00;101463.88;5023999;28;20418;-71
2023/12/19 06:56:32;;;;;;;18.08;11.82;;;;;;;1.63;100.00;101447.34;5032492;28;20045;-71
2023/12/19 06:59:05;;;;;;;21.60;13.10;;;;;;;1.75;100.00;101455.25;5033133;28;20133;-71
2023/12/19 07:01:37;;;;;;;21.23;12.88;;;;;;;1.77;100.00;101450.91;5026618;28;20068;-72
2023/12/19 07:04:05;;;;;;;24.10;13.38;;;;;;;1.68;100.00;101435.22;5025586;28;20041;-70
2023/12/19 07:06:37;;;;;;;20.42;13.30;;;;;;;1.58;100.00;101441.22;5010877;28;20691;-73
2023/12/19 07:09:07;;;;;;;23.90;14.30;;;;;;;1.43;100.00;101410.66;5031114;28;20060;-72
2023/12/19 07:11:35;;;;;;;22.95;14.27;;;;;;;1.39;100.00;101433.28;5030415;28;20514;-70
2023/12/19 07:14:03;;;;;;;27.88;15.32;;;;;;;1.40;100.00;101439.38;5026498;28;20053;-72
2023/12/19 07:16:32;;;;;;;26.23;15.68;;;;;;;1.46;100.00;101436.81;5033573;28;20406;-71
2023/12/19 07:19:02;;;;;;;24.75;14.98;;;;;;;1.41;100.00;101422.88;5019653;28;20099;-73
2023/12/19 07:21:32;;;;;;;29.60;16.00;;;;;;;1.55;100.00;101433.41;5028264;28;20048;-72
2023/12/19 07:24:03;;;;;;;26.67;16.88;;;;;;;1.55;100.00;101412.50;5028048;28;20045;-72
2023/12/19 07:26:32;;;;;;;25.00;15.93;;;;;;;1.64;100.00;101423.88;5033650;28;20116;-73
2023/12/19 07:29:10;;;;;;;27.60;16.33;;;;;;;1.77;100.00;101425.69;5014048;28;20484;-72
2023/12/19 07:31:40;;;;;;;29.35;17.27;;;;;;;1.81;100.00;101407.41;5040330;28;20449;-73
2023/12/19 07:34:08;;;;;;;30.30;17.42;;;;;;;1.68;100.00;101398.66;5023693;28;20041;-72
2023/12/19 07:36:37;;;;;;;30.45;17.70;;;;;;;1.69;100.00;101405.63;5043756;28;20053;-72
2023/12/19 07:39:10;;;;;;;29.80;16.92;;;;;;;1.81;100.00;101404.81;5032887;28;20052;-73
2023/12/19 07:41:38;;;;;;;30.25;17.77;;;;;;;1.81;100.00;101405.69;5029133;28;20069;-72
2023/12/19 07:44:09;;;;;;;32.30;18.83;;;;;;;1.87;100.00;101404.84;5028051;28;20033;-71
2023/12/19 07:46:40;;;;;;;32.53;18.95;;;;;;;1.90;100.00;101399.63;5015648;28;20045;-73
2023/12/19 07:49:09;;;;;;;29.15;17.98;;;;;;;1.85;100.00;101385.69;5031919;28;20045;-71
2023/12/19 07:51:38;;;;;;;28.52;17.85;;;;;;;1.91;100.00;101376.13;5031643;28;20095;-72
2023/12/19 07:54:08;;;;;;;29.98;18.77;;;;;;;2.02;100.00;101397.06;5007112;28;20045;-71
2023/12/19 07:56:42;;;;;;;27.15;17.40;;;;;;;2.03;100.00;101391.00;5030439;28;20059;-72
2023/12/19 07:59:14;;;;;;;28.30;17.25;;;;;;;2.02;100.00;101390.13;5043195;28;20233;-73
2023/12/19 08:01:48;;;;;;;29.13;17.65;;;;;;;2.05;100.00;101389.22;5023817;28;20049;-71
2023/12/19 08:04:23;;;;;;;27.23;17.38;;;;;;;2.14;100.00;101389.28;5018998;28;20540;-71
2023/12/19 08:06:51;;;;;;;27.52;17.00;;;;;;;2.09;100.00;101381.41;5012188;28;20081;-72
2023/12/19 08:09:21;;;;;;;29.73;17.55;;;;;;;2.21;100.00;101405.81;5012058;28;20076;-71
2023/12/19 08:11:49;;;;;;;29.20;18.02;;;;;;;2.06;100.00;101404.91;5050883;28;20042;-67
2023/12/19 08:14:18;;;;;;;25.83;16.27;;;;;;;2.17;100.00;101425.88;5023736;28;20064;-70
2023/12/19 08:16:46;;;;;;;26.55;16.67;;;;;;;2.09;100.00;101420.59;5027618;28;20033;-70
2023/12/19 08:19:14;;;;;;;26.27;16.42;;;;;;;2.17;100.00;101409.31;5030794;28;20050;-71
2023/12/19 08:21:54;;;;;;;29.30;16.98;;;;;;;2.15;100.00;101396.25;5049669;28;20052;-71
2023/12/19 08:24:31;;;;;;;;;;;;;;;2.17;100.00;101399.75;4995721;28;20079;-71
2023/12/19 08:26:59;;;;;;;25.85;16.25;;;;;;;2.10;100.00;101398.84;5029662;28;19921;-74
2023/12/19 08:29:29;;;;;;;27.60;17.15;;;;;;;2.08;100.00;101404.91;4997185;28;20045;-70
2023/12/19 08:32:22;;;;;;;27.77;16.48;;;;;;;2.09;100.00;101406.66;5011012;28;20247;-71
2023/12/19 08:34:50;;;;;;;26.15;16.75;;;;;;;2.12;100.00;101409.28;5023831;28;20054;-70
2023/12/19 08:37:20;;;;;;;29.70;17.30;;;;;;;2.18;100.00;101391.03;5024143;28;20048;-69
2023/12/19 08:39:57;;;;;;;27.75;17.42;;;;;;;2.23;100.00;101391.91;5027043;28;20049;-72
2023/12/19 08:42:26;;;;;;;28.92;17.45;;;;;;;2.18;100.00;101357.06;5039999;28;20093;-71
2023/12/19 08:44:55;;;;;;;27.60;17.05;;;;;;;2.26;100.00;101373.63;5020550;28;20049;-71
2023/12/19 08:47:24;;;;;;;28.50;17.60;;;;;;;2.21;100.00;101361.41;5038431;28;20045;-71
2023/12/19 08:49:52;;;;;;;28.90;17.17;;;;;;;2.32;100.00;101362.31;5029692;28;20045;-70
2023/12/19 08:52:24;;;;;;;31.33;17.88;;;;;;;2.19;100.00;101350.97;5023487;28;20049;-73
2023/12/19 08:55:11;;;;;;;28.73;17.20;;;;;;;2.17;100.00;101386.69;5022748;28;20049;-70
2023/12/19 08:57:41;;;;;;;30.80;17.30;;;;;;;2.26;100.00;101375.34;5029144;28;20041;-71
2023/12/19 09:00:16;;;;;;;29.60;17.83;;;;;;;2.27;100.00;101362.31;5041308;28;20065;-69
2023/12/19 09:02:48;;;;;;;29.65;17.50;;;;;;;2.36;100.00;101364.09;5028756;28;20045;-70
2023/12/19 09:05:19;;;;;;;28.17;16.73;;;;;;;2.27;100.00;101350.97;5016166;28;20103;-71
2023/12/19 09:07:49;;;;;;;31.20;16.33;;;;;;;2.35;100.00;101362.34;4998398;28;20042;-71
2023/12/19 09:10:19;;;;;;;30.67;17.95;;;;;;;2.46;100.00;101365.81;4981515;28;20038;-72
2023/12/19 09:12:47;;;;;;;28.70;16.75;;;;;;;2.54;100.00;101374.53;4994146;28;20062;-70
2023/12/19 09:15:18;;;;;;;30.33;18.15;;;;;;;2.52;100.00;101357.97;4975290;28;20054;-70
2023/12/19 09:17:47;;;;;;;27.42;16.52;;;;;;;2.63;100.00;101365.84;4993473;28;20046;-70
2023/12/19 09:20:17;;;;;;;26.92;16.15;;;;;;;2.47;100.00;101344.91;4990115;28;20081;-71
2023/12/19 09:22:45;;;;;;;27.33;16.05;;;;;;;2.56;100.00;101361.47;4983580;28;20096;-70
2023/12/19 09:25:15;;;;;;;25.95;15.20;;;;;;;2.51;100.00;101344.94;4988952;28;20056;-70
2023/12/19 09:27:46;;;;;;;25.70;15.80;;;;;;;2.67;100.00;101359.75;4987334;28;20069;-70
2023/12/19 09:30:15;;;;;;;26.92;16.05;;;;;;;2.72;100.00;101358.00;4988874;28;21373;-71
2023/12/19 09:32:45;;;;;;;26.67;16.40;;;;;;;2.70;100.00;101351.88;4988052;28;20085;-70
2023/12/19 09:35:15;;;;;;;29.40;16.38;;;;;;;2.64;100.00;101360.63;4970312;28;20054;-70
2023/12/19 09:37:44;;;;;;;28.42;16.35;;;;;;;2.66;100.00;101358.00;4988631;28;20070;-70
2023/12/19 09:40:15;;;;;;;26.20;15.30;;;;;;;2.61;100.00;101336.22;4992178;28;20649;-70
2023/12/19 09:42:47;;;;;;;27.52;15.55;;;;;;;2.63;100.00;101342.31;4988709;28;20072;-69
2023/12/19 09:45:16;;;;;;;26.42;15.80;;;;;;;2.56;100.00;101343.16;4989477;28;20034;-69
2023/12/19 09:47:59;;;;;;;27.83;16.08;;;;;;;2.57;100.00;101334.47;4991770;28;20077;-70
2023/12/19 09:50:28;;;;;;;29.70;15.90;;;;;;;2.39;100.00;101323.09;4988741;28;20046;-71
2023/12/19 09:52:59;;;;;;;26.70;16.33;;;;;;;2.38;100.00;101337.06;4981876;28;20060;-70
2023/12/19 09:55:28;;;;;;;27.42;15.98;;;;;;;2.36;100.00;101324.88;4991090;28;20049;-71
2023/12/19 09:58:00;;;;;;;26.97;16.17;;;;;;;2.16;100.00;101282.16;4977281;28;20557;-72
2023/12/19 10:00:32;;;;;;;28.02;15.85;;;;;;;2.46;100.00;101339.69;4992143;28;20507;-70
2023/12/19 10:03:02;;;;;;;27.73;15.75;;;;;;;2.51;100.00;101305.72;4992583;28;20054;-72
2023/12/19 10:05:30;;;;;;;25.67;15.48;;;;;;;2.61;100.00;101317.91;4995032;28;20038;-72
2023/12/19 10:07:58;;;;;;;26.40;15.38;;;;;;;2.68;100.00;101328.34;5037394;28;20042;-71
2023/12/19 10:10:49;;;;;;;19.67;11.25;;;;;;;2.66;100.00;101326.63;5049473;28;20295;-72
2023/12/19 10:13:28;;;;;;;25.55;15.18;;;;;;;2.67;100.00;101329.25;5033868;28;20049;-72
2023/12/19 10:16:01;;;;;;;25.10;14.98;;;;;;;2.71;100.00;101314.41;5035051;28;20083;-70
2023/12/19 10:18:56;;;;;;;24.77;14.65;;;;;;;2.74;100.00;101301.34;5039110;28;20528;-70
2023/12/19 10:21:29;;;;;;;26.20;15.18;;;;;;;2.66;100.00;101311.81;5039348;28;20088;-70
2023/12/19 10:24:16;;;;;;;26.30;15.45;;;;;;;2.61;100.00;101297.00;5033163;28;20053;-70
2023/12/19 10:26:45;;;;;;;26.38;15.13;;;;;;;2.69;100.00;101284.75;5041559;28;20497;-68
2023/12/19 10:29:25;;;;;;;27.75;15.63;;;;;;;2.68;100.00;101272.56;5040083;28;20052;-71
2023/12/19 10:31:56;;;;;;;25.15;15.43;;;;;;;2.69;100.00;101254.25;5047119;28;20056;-73
2023/12/19 10:34:25;;;;;;;23.33;12.85;;;;;;;2.78;100.00;101259.50;5040211;28;20063;-71
2023/12/19 10:36:53;;;;;;;26.05;15.57;;;;;;;2.74;100.00;101243.81;5039748;28;20053;-71
2023/12/19 10:39:22;;;;;;;25.85;15.25;;;;;;;2.83;100.00;101247.25;5045182;28;20208;-71
2023/12/19 10:42:04;;;;;;;26.17;15.80;;;;;;;2.83;100.00;101234.19;5027848;28;20045;-71
2023/12/19 10:44:39;;;;;;;24.23;14.50;;;;;;;2.79;100.00;101210.66;5034107;28;20099;-70
2023/12/19 10:47:10;;;;;;;26.50;15.40;;;;;;;3.11;100.00;101231.50;5045863;28;20052;-73
2023/12/19 10:49:39;;;;;;;25.13;13.90;;;;;;;3.17;100.00;101229.72;5042158;28;20044;-71
2023/12/19 10:52:10;;;;;;;25.95;15.07;;;;;;;3.23;100.00;101214.88;5038294;28;20128;-72
2023/12/19 10:54:40;;;;;;;25.48;13.80;;;;;;;3.36;100.00;101233.16;5023269;28;21424;-72
2023/12/19 10:57:16;;;;;;;24.23;13.35;;;;;;;3.36;100.00;101221.81;5034600;28;20062;-73
2023/12/19 10:59:57;;;;;;;22.30;13.98;;;;;;;3.37;100.00;101211.34;5037513;28;20049;-70
2023/12/19 11:02:46;;;;;;;24.23;14.50;;;;;;;3.35;100.00;101231.41;5034701;28;20068;-71
2023/12/19 11:05:25;;;;;;;24.80;13.70;;;;;;;3.15;100.00;101210.53;5043055;28;20055;-71
2023/12/19 11:08:01;;;;;;;25.05;13.95;;;;;;;3.17;100.00;101216.66;5036399;28;20080;-71
2023/12/19 11:10:33;;;;;;;24.58;13.95;;;;;;;3.04;100.00;101208.84;5014296;28;20055;-71
2023/12/19 11:13:04;;;;;;;24.65;14.35;;;;;;;3.22;100.00;101207.91;5017482;28;20061;-72
2023/12/19 11:15:43;;;;;;;25.45;15.25;;;;;;;3.29;100.00;101196.56;5030421;28;20049;-72
2023/12/19 11:18:19;;;;;;;23.67;13.93;;;;;;;3.30;100.00;101198.28;5034231;28;20037;-71
2023/12/19 11:21:01;;;;;;;23.23;13.63;;;;;;;3.17;100.00;101179.13;5028658;28;20587;-72
2023/12/19 11:23:41;;;;;;;27.00;16.17;;;;;;;3.33;100.00;101200.88;5019179;28;20052;-72